sensor_id;sensor_type;location;lat;lon;timestamp;pressure;altitude;pressure_sealevel;temperature;humidity
59939;BME280;45801;51.810;19.444;2022-09-17T00:00:38;97889.58;;;11.93;67.78
59939;BME280;45801;51.810;19.444;2022-09-17T00:03:25;97891.84;;;11.92;68.02
59939;BME280;45801;51.810;19.444;2022-09-17T00:06:00;97890.80;;;11.92;67.94
59939;BME280;45801;51.810;19.444;2022-09-17T00:08:28;97884.66;;;11.93;67.90
59939;BME280;45801;51.810;19.444;2022-09-17T00:10:54;97884.83;;;11.92;67.63
59939;BME280;45801;51.810;19.444;2022-09-17T00:13:21;97880.08;;;11.92;67.72
59939;BME280;45801;51.810;19.444;2022-09-17T00:15:49;97877.13;;;11.93;67.58
59939;BME280;45801;51.810;19.444;2022-09-17T00:18:17;97882.02;;;11.93;67.44
59939;BME280;45801;51.810;19.444;2022-09-17T00:20:45;97876.90;;;11.92;67.47
59939;BME280;45801;51.810;19.444;2022-09-17T00:23:13;97878.33;;;11.93;67.46
59939;BME280;45801;51.810;19.444;2022-09-17T00:25:41;97879.20;;;11.91;67.50
59939;BME280;45801;51.810;19.444;2022-09-17T00:28:09;97876.33;;;11.88;67.42
59939;BME280;45801;51.810;19.444;2022-09-17T00:30:39;97875.23;;;11.86;67.60
59939;BME280;45801;51.810;19.444;2022-09-17T00:33:06;97874.67;;;11.83;67.60
59939;BME280;45801;51.810;19.444;2022-09-17T00:35:33;97876.73;;;11.81;67.86
59939;BME280;45801;51.810;19.444;2022-09-17T00:38:00;97876.16;;;11.78;67.44
59939;BME280;45801;51.810;19.444;2022-09-17T00:40:26;97874.70;;;11.75;67.94
59939;BME280;45801;51.810;19.444;2022-09-17T00:42:52;97875.94;;;11.75;68.04
59939;BME280;45801;51.810;19.444;2022-09-17T00:45:19;97882.10;;;11.77;68.12
59939;BME280;45801;51.810;19.444;2022-09-17T00:48:08;97883.50;;;11.77;68.15
59939;BME280;45801;51.810;19.444;2022-09-17T00:50:40;97887.20;;;11.78;68.17
59939;BME280;45801;51.810;19.444;2022-09-17T00:53:10;97885.13;;;11.79;68.00
59939;BME280;45801;51.810;19.444;2022-09-17T00:55:48;97887.19;;;11.77;68.07
59939;BME280;45801;51.810;19.444;2022-09-17T00:58:17;97880.66;;;11.75;67.96
59939;BME280;45801;51.810;19.444;2022-09-17T01:00:47;97888.19;;;11.74;67.85
59939;BME280;45801;51.810;19.444;2022-09-17T01:03:14;97889.91;;;11.72;67.92
59939;BME280;45801;51.810;19.444;2022-09-17T01:05:48;97887.55;;;11.67;68.03
59939;BME280;45801;51.810;19.444;2022-09-17T01:16:32;97892.05;;;11.54;68.31
59939;BME280;45801;51.810;19.444;2022-09-17T01:21:50;97894.31;;;11.54;68.73
59939;BME280;45801;51.810;19.444;2022-09-17T01:27:37;97897.83;;;11.53;68.72
59939;BME280;45801;51.810;19.444;2022-09-17T01:30:19;97896.05;;;11.52;68.66
59939;BME280;45801;51.810;19.444;2022-09-17T01:33:09;97891.63;;;11.49;68.90
59939;BME280;45801;51.810;19.444;2022-09-17T01:35:47;97892.27;;;11.46;68.52
59939;BME280;45801;51.810;19.444;2022-09-17T01:43:55;97889.20;;;11.41;68.68
59939;BME280;45801;51.810;19.444;2022-09-17T01:46:39;97887.92;;;11.39;68.80
59939;BME280;45801;51.810;19.444;2022-09-17T01:49:09;97891.60;;;11.39;68.67
59939;BME280;45801;51.810;19.444;2022-09-17T01:51:41;97888.25;;;11.38;68.57
59939;BME280;45801;51.810;19.444;2022-09-17T01:54:21;97891.52;;;11.35;68.46
59939;BME280;45801;51.810;19.444;2022-09-17T01:56:59;97884.82;;;11.32;68.63
59939;BME280;45801;51.810;19.444;2022-09-17T01:59:35;97887.14;;;11.34;68.85
59939;BME280;45801;51.810;19.444;2022-09-17T02:02:14;97883.66;;;11.36;69.09
59939;BME280;45801;51.810;19.444;2022-09-17T02:04:54;97886.63;;;11.36;69.19
59939;BME280;45801;51.810;19.444;2022-09-17T02:07:23;97886.67;;;11.38;69.04
59939;BME280;45801;51.810;19.444;2022-09-17T02:10:12;97884.28;;;11.41;69.04
59939;BME280;45801;51.810;19.444;2022-09-17T02:12:43;97881.30;;;11.41;68.78
59939;BME280;45801;51.810;19.444;2022-09-17T02:15:19;97875.30;;;11.38;68.75
59939;BME280;45801;51.810;19.444;2022-09-17T02:17:53;97873.65;;;11.35;68.90
59939;BME280;45801;51.810;19.444;2022-09-17T02:20:34;97871.70;;;11.34;68.77
59939;BME280;45801;51.810;19.444;2022-09-17T02:23:07;97868.13;;;11.30;68.78
59939;BME280;45801;51.810;19.444;2022-09-17T02:25:47;97867.36;;;11.27;68.94
59939;BME280;45801;51.810;19.444;2022-09-17T02:28:26;97867.69;;;11.25;69.01
59939;BME280;45801;51.810;19.444;2022-09-17T02:30:57;97869.05;;;11.24;69.04
59939;BME280;45801;51.810;19.444;2022-09-17T02:33:25;97865.37;;;11.23;68.90
59939;BME280;45801;51.810;19.444;2022-09-17T02:35:53;97863.44;;;11.23;69.10
59939;BME280;45801;51.810;19.444;2022-09-17T02:38:28;97869.98;;;11.26;69.20
59939;BME280;45801;51.810;19.444;2022-09-17T02:41:14;97857.92;;;11.27;69.37
59939;BME280;45801;51.810;19.444;2022-09-17T02:43:50;97863.42;;;11.31;69.15
59939;BME280;45801;51.810;19.444;2022-09-17T02:55:01;97851.41;;;11.37;69.23
59939;BME280;45801;51.810;19.444;2022-09-17T02:57:40;97849.08;;;11.42;68.93
59939;BME280;45801;51.810;19.444;2022-09-17T03:00:14;97859.02;;;11.40;68.65
59939;BME280;45801;51.810;19.444;2022-09-17T03:02:49;97858.77;;;11.37;68.60
59939;BME280;45801;51.810;19.444;2022-09-17T03:05:18;97860.29;;;11.32;68.66
59939;BME280;45801;51.810;19.444;2022-09-17T03:07:45;97859.88;;;11.29;68.29
59939;BME280;45801;51.810;19.444;2022-09-17T03:10:11;97863.34;;;11.27;68.70
59939;BME280;45801;51.810;19.444;2022-09-17T03:12:45;97863.70;;;11.27;68.96
59939;BME280;45801;51.810;19.444;2022-09-17T03:15:12;97864.57;;;11.27;69.05
59939;BME280;45801;51.810;19.444;2022-09-17T03:17:38;97867.54;;;11.27;68.99
59939;BME280;45801;51.810;19.444;2022-09-17T03:20:05;97863.86;;;11.27;68.93
59939;BME280;45801;51.810;19.444;2022-09-17T03:22:31;97859.60;;;11.24;68.57
59939;BME280;45801;51.810;19.444;2022-09-17T03:24:58;97857.77;;;11.20;68.54
59939;BME280;45801;51.810;19.444;2022-09-17T03:27:24;97857.36;;;11.17;68.60
59939;BME280;45801;51.810;19.444;2022-09-17T03:29:51;97853.35;;;11.17;68.69
59939;BME280;45801;51.810;19.444;2022-09-17T03:32:17;97852.81;;;11.18;68.50
59939;BME280;45801;51.810;19.444;2022-09-17T03:34:45;97851.27;;;11.18;68.48
59939;BME280;45801;51.810;19.444;2022-09-17T03:37:13;97847.60;;;11.19;68.52
59939;BME280;45801;51.810;19.444;2022-09-17T03:39:39;97846.16;;;11.17;68.40
59939;BME280;45801;51.810;19.444;2022-09-17T03:42:06;97846.50;;;11.16;68.24
59939;BME280;45801;51.810;19.444;2022-09-17T03:44:32;97845.77;;;11.14;68.33
59939;BME280;45801;51.810;19.444;2022-09-17T03:46:59;97843.46;;;11.13;68.22
59939;BME280;45801;51.810;19.444;2022-09-17T03:49:26;97838.92;;;11.14;68.21
59939;BME280;45801;51.810;19.444;2022-09-17T03:51:52;97835.40;;;11.13;68.63
59939;BME280;45801;51.810;19.444;2022-09-17T03:54:19;97834.00;;;11.13;68.99
59939;BME280;45801;51.810;19.444;2022-09-17T03:56:45;97832.08;;;11.14;69.07
59939;BME280;45801;51.810;19.444;2022-09-17T03:59:12;97832.98;;;11.15;68.90
59939;BME280;45801;51.810;19.444;2022-09-17T04:01:38;97831.41;;;11.16;68.72
59939;BME280;45801;51.810;19.444;2022-09-17T04:04:05;97829.47;;;11.15;68.78
59939;BME280;45801;51.810;19.444;2022-09-17T04:06:31;97834.71;;;11.14;68.53
59939;BME280;45801;51.810;19.444;2022-09-17T04:08:59;97838.08;;;11.17;68.44
59939;BME280;45801;51.810;19.444;2022-09-17T04:11:26;97840.04;;;11.18;68.29
59939;BME280;45801;51.810;19.444;2022-09-17T04:13:52;97834.59;;;11.17;68.20
59939;BME280;45801;51.810;19.444;2022-09-17T04:16:20;97840.20;;;11.17;68.38
59939;BME280;45801;51.810;19.444;2022-09-17T04:18:46;97842.83;;;11.17;68.46
59939;BME280;45801;51.810;19.444;2022-09-17T04:21:13;97837.70;;;11.14;68.38
59939;BME280;45801;51.810;19.444;2022-09-17T04:23:39;97835.90;;;11.12;68.28
59939;BME280;45801;51.810;19.444;2022-09-17T04:26:06;97837.85;;;11.13;68.45
59939;BME280;45801;51.810;19.444;2022-09-17T04:28:33;97838.40;;;11.15;68.65
59939;BME280;45801;51.810;19.444;2022-09-17T04:30:59;97840.02;;;11.17;68.92
59939;BME280;45801;51.810;19.444;2022-09-17T04:33:26;97843.26;;;11.21;69.06
59939;BME280;45801;51.810;19.444;2022-09-17T04:35:52;97844.15;;;11.23;68.91
59939;BME280;45801;51.810;19.444;2022-09-17T04:38:19;97844.52;;;11.23;68.93
59939;BME280;45801;51.810;19.444;2022-09-17T04:40:47;97847.02;;;11.26;68.65
59939;BME280;45801;51.810;19.444;2022-09-17T04:43:15;97849.46;;;11.25;68.43
59939;BME280;45801;51.810;19.444;2022-09-17T04:45:45;97848.42;;;11.26;68.35
59939;BME280;45801;51.810;19.444;2022-09-17T04:48:12;97841.98;;;11.28;68.44
59939;BME280;45801;51.810;19.444;2022-09-17T04:50:38;97843.91;;;11.28;68.29
59939;BME280;45801;51.810;19.444;2022-09-17T04:53:04;97842.81;;;11.26;68.22
59939;BME280;45801;51.810;19.444;2022-09-17T04:55:31;97841.21;;;11.25;67.98
59939;BME280;45801;51.810;19.444;2022-09-17T04:57:57;97847.02;;;11.26;68.20
59939;BME280;45801;51.810;19.444;2022-09-17T05:00:24;97847.88;;;11.25;68.40
59939;BME280;45801;51.810;19.444;2022-09-17T05:02:52;97844.14;;;11.22;68.39
59939;BME280;45801;51.810;19.444;2022-09-17T05:05:20;97845.95;;;11.25;68.56
59939;BME280;45801;51.810;19.444;2022-09-17T05:07:47;97845.98;;;11.27;69.06
59939;BME280;45801;51.810;19.444;2022-09-17T05:10:15;97843.95;;;11.29;69.03
59939;BME280;45801;51.810;19.444;2022-09-17T05:12:53;97843.13;;;11.34;68.98
59939;BME280;45801;51.810;19.444;2022-09-17T05:15:21;97838.66;;;11.39;68.90
59939;BME280;45801;51.810;19.444;2022-09-17T05:17:47;97838.52;;;11.40;68.60
59939;BME280;45801;51.810;19.444;2022-09-17T05:20:14;97841.20;;;11.43;68.67
59939;BME280;45801;51.810;19.444;2022-09-17T05:22:48;97839.38;;;11.49;68.37
59939;BME280;45801;51.810;19.444;2022-09-17T05:25:16;97842.17;;;11.49;68.19
59939;BME280;45801;51.810;19.444;2022-09-17T05:27:44;97839.14;;;11.46;68.25
59939;BME280;45801;51.810;19.444;2022-09-17T05:30:11;97842.29;;;11.45;68.21
59939;BME280;45801;51.810;19.444;2022-09-17T05:32:38;97842.63;;;11.44;68.29
59939;BME280;45801;51.810;19.444;2022-09-17T05:35:06;97841.23;;;11.45;68.27
59939;BME280;45801;51.810;19.444;2022-09-17T05:37:33;97839.85;;;11.47;68.07
59939;BME280;45801;51.810;19.444;2022-09-17T05:39:59;97837.95;;;11.48;68.04
59939;BME280;45801;51.810;19.444;2022-09-17T05:42:26;97842.52;;;11.48;68.30
59939;BME280;45801;51.810;19.444;2022-09-17T05:44:52;97838.54;;;11.53;68.68
59939;BME280;45801;51.810;19.444;2022-09-17T05:47:20;97841.34;;;11.52;68.55
59939;BME280;45801;51.810;19.444;2022-09-17T05:49:46;97841.20;;;11.54;68.61
59939;BME280;45801;51.810;19.444;2022-09-17T05:52:13;97838.25;;;11.56;68.61
59939;BME280;45801;51.810;19.444;2022-09-17T05:54:39;97835.31;;;11.58;68.82
59939;BME280;45801;51.810;19.444;2022-09-17T05:57:05;97830.54;;;11.55;68.90
59939;BME280;45801;51.810;19.444;2022-09-17T05:59:32;97830.55;;;11.56;68.99
59939;BME280;45801;51.810;19.444;2022-09-17T06:01:59;97828.94;;;11.55;68.74
59939;BME280;45801;51.810;19.444;2022-09-17T06:04:25;97831.88;;;11.53;68.91
59939;BME280;45801;51.810;19.444;2022-09-17T06:06:52;97827.86;;;11.53;69.62
59939;BME280;45801;51.810;19.444;2022-09-17T06:09:18;97825.42;;;11.54;69.61
59939;BME280;45801;51.810;19.444;2022-09-17T06:11:45;97819.27;;;11.54;69.28
59939;BME280;45801;51.810;19.444;2022-09-17T06:14:11;97827.23;;;11.58;69.26
59939;BME280;45801;51.810;19.444;2022-09-17T06:16:37;97823.17;;;11.56;69.62
59939;BME280;45801;51.810;19.444;2022-09-17T06:19:04;97836.64;;;11.54;69.67
59939;BME280;45801;51.810;19.444;2022-09-17T06:21:30;97835.11;;;11.57;69.89
59939;BME280;45801;51.810;19.444;2022-09-17T06:23:57;97839.91;;;11.61;70.00
59939;BME280;45801;51.810;19.444;2022-09-17T06:26:23;97829.05;;;11.62;69.74
59939;BME280;45801;51.810;19.444;2022-09-17T06:28:50;97827.63;;;11.61;69.96
59939;BME280;45801;51.810;19.444;2022-09-17T06:31:16;97830.40;;;11.58;69.98
59939;BME280;45801;51.810;19.444;2022-09-17T06:33:43;97830.91;;;11.58;69.86
59939;BME280;45801;51.810;19.444;2022-09-17T06:36:10;97834.43;;;11.58;69.90
59939;BME280;45801;51.810;19.444;2022-09-17T06:38:37;97835.27;;;11.57;70.27
59939;BME280;45801;51.810;19.444;2022-09-17T06:41:04;97835.60;;;11.55;70.23
59939;BME280;45801;51.810;19.444;2022-09-17T06:43:30;97829.80;;;11.55;70.39
59939;BME280;45801;51.810;19.444;2022-09-17T06:45:59;97838.49;;;11.60;70.39
59939;BME280;45801;51.810;19.444;2022-09-17T06:48:27;97840.92;;;11.69;70.59
59939;BME280;45801;51.810;19.444;2022-09-17T06:50:54;97835.23;;;11.75;70.57
59939;BME280;45801;51.810;19.444;2022-09-17T06:53:21;97837.05;;;11.79;70.60
59939;BME280;45801;51.810;19.444;2022-09-17T06:55:49;97840.48;;;11.84;70.63
59939;BME280;45801;51.810;19.444;2022-09-17T06:58:15;97840.56;;;11.80;70.86
59939;BME280;45801;51.810;19.444;2022-09-17T07:00:42;97849.70;;;11.79;70.70
59939;BME280;45801;51.810;19.444;2022-09-17T07:03:09;97851.05;;;11.77;71.00
59939;BME280;45801;51.810;19.444;2022-09-17T07:05:35;97855.27;;;11.77;71.16
59939;BME280;45801;51.810;19.444;2022-09-17T07:08:02;97856.98;;;11.75;71.05
59939;BME280;45801;51.810;19.444;2022-09-17T07:10:29;97857.72;;;11.66;71.18
59939;BME280;45801;51.810;19.444;2022-09-17T07:12:56;97864.35;;;11.63;71.21
59939;BME280;45801;51.810;19.444;2022-09-17T07:15:22;97864.03;;;11.66;71.13
59939;BME280;45801;51.810;19.444;2022-09-17T07:17:48;97859.67;;;11.67;71.37
59939;BME280;45801;51.810;19.444;2022-09-17T07:20:15;97861.30;;;11.72;71.73
59939;BME280;45801;51.810;19.444;2022-09-17T07:22:42;97869.64;;;11.76;72.10
59939;BME280;45801;51.810;19.444;2022-09-17T07:25:10;97873.54;;;11.79;71.97
59939;BME280;45801;51.810;19.444;2022-09-17T07:27:37;97874.82;;;11.81;71.83
59939;BME280;45801;51.810;19.444;2022-09-17T07:30:03;97874.52;;;11.86;71.56
59939;BME280;45801;51.810;19.444;2022-09-17T07:32:30;97871.77;;;11.89;71.68
59939;BME280;45801;51.810;19.444;2022-09-17T07:34:56;97874.25;;;11.90;71.67
59939;BME280;45801;51.810;19.444;2022-09-17T07:37:23;97871.45;;;11.91;71.79
59939;BME280;45801;51.810;19.444;2022-09-17T07:39:49;97870.70;;;11.89;71.68
59939;BME280;45801;51.810;19.444;2022-09-17T07:42:16;97866.88;;;11.89;71.72
59939;BME280;45801;51.810;19.444;2022-09-17T07:44:42;97867.05;;;11.91;72.70
59939;BME280;45801;51.810;19.444;2022-09-17T07:47:09;97869.17;;;11.91;72.48
59939;BME280;45801;51.810;19.444;2022-09-17T07:49:35;97868.82;;;11.91;72.69
59939;BME280;45801;51.810;19.444;2022-09-17T07:52:02;97872.07;;;11.95;73.00
59939;BME280;45801;51.810;19.444;2022-09-17T07:54:32;97867.55;;;11.97;73.14
59939;BME280;45801;51.810;19.444;2022-09-17T07:56:59;97868.86;;;12.02;73.47
59939;BME280;45801;51.810;19.444;2022-09-17T07:59:26;97867.48;;;12.04;73.56
59939;BME280;45801;51.810;19.444;2022-09-17T08:01:53;97866.13;;;12.08;72.80
59939;BME280;45801;51.810;19.444;2022-09-17T08:04:19;97872.64;;;12.08;72.85
59939;BME280;45801;51.810;19.444;2022-09-17T08:06:46;97881.41;;;12.08;73.52
59939;BME280;45801;51.810;19.444;2022-09-17T08:09:16;97883.50;;;12.07;73.00
59939;BME280;45801;51.810;19.444;2022-09-17T08:11:43;97885.58;;;12.05;73.68
59939;BME280;45801;51.810;19.444;2022-09-17T08:14:11;97892.34;;;12.00;73.75
59939;BME280;45801;51.810;19.444;2022-09-17T08:16:38;97896.59;;;12.01;73.20
59939;BME280;45801;51.810;19.444;2022-09-17T08:19:05;97893.12;;;12.04;73.52
59939;BME280;45801;51.810;19.444;2022-09-17T08:21:31;97891.43;;;12.10;73.95
59939;BME280;45801;51.810;19.444;2022-09-17T08:23:57;97888.56;;;12.17;73.92
59939;BME280;45801;51.810;19.444;2022-09-17T08:26:24;97891.67;;;12.25;74.12
59939;BME280;45801;51.810;19.444;2022-09-17T08:28:52;97891.06;;;12.32;74.05
59939;BME280;45801;51.810;19.444;2022-09-17T08:31:23;97898.09;;;12.31;73.74
59939;BME280;45801;51.810;19.444;2022-09-17T08:33:51;97901.14;;;12.36;73.50
59939;BME280;45801;51.810;19.444;2022-09-17T08:36:18;97906.62;;;12.38;73.77
59939;BME280;45801;51.810;19.444;2022-09-17T08:38:46;97906.63;;;12.37;73.65
59939;BME280;45801;51.810;19.444;2022-09-17T08:41:22;97899.73;;;12.35;73.60
59939;BME280;45801;51.810;19.444;2022-09-17T08:46:44;97904.63;;;12.35;73.78
59939;BME280;45801;51.810;19.444;2022-09-17T08:49:22;97901.70;;;12.38;73.69
59939;BME280;45801;51.810;19.444;2022-09-17T08:52:13;97896.67;;;12.43;73.95
59939;BME280;45801;51.810;19.444;2022-09-17T09:00:03;97898.80;;;12.57;74.07
59939;BME280;45801;51.810;19.444;2022-09-17T09:05:29;97895.89;;;12.62;74.01
59939;BME280;45801;51.810;19.444;2022-09-17T09:08:30;97896.58;;;12.62;73.69
59939;BME280;45801;51.810;19.444;2022-09-17T09:11:01;97898.98;;;12.57;73.92
59939;BME280;45801;51.810;19.444;2022-09-17T09:13:35;97900.94;;;12.60;73.69
59939;BME280;45801;51.810;19.444;2022-09-17T09:16:06;97900.77;;;12.60;73.68
59939;BME280;45801;51.810;19.444;2022-09-17T09:18:37;97898.17;;;12.62;73.81
59939;BME280;45801;51.810;19.444;2022-09-17T09:23:53;97905.10;;;12.68;74.21
59939;BME280;45801;51.810;19.444;2022-09-17T09:26:43;97909.27;;;12.77;74.30
59939;BME280;45801;51.810;19.444;2022-09-17T09:32:04;97903.86;;;12.95;73.86
59939;BME280;45801;51.810;19.444;2022-09-17T09:34:33;97908.63;;;12.97;73.36
59939;BME280;45801;51.810;19.444;2022-09-17T09:37:13;97902.45;;;12.94;73.71
59939;BME280;45801;51.810;19.444;2022-09-17T09:39:43;97898.42;;;12.95;73.74
59939;BME280;45801;51.810;19.444;2022-09-17T09:42:30;97904.39;;;12.94;73.85
59939;BME280;45801;51.810;19.444;2022-09-17T09:45:01;97903.88;;;12.96;74.06
59939;BME280;45801;51.810;19.444;2022-09-17T09:47:40;97903.45;;;13.03;74.00
59939;BME280;45801;51.810;19.444;2022-09-17T09:50:23;97907.62;;;13.14;74.04
59939;BME280;45801;51.810;19.444;2022-09-17T09:53:06;97914.67;;;13.17;73.43
59939;BME280;45801;51.810;19.444;2022-09-17T09:56:00;97912.92;;;13.18;73.62
59939;BME280;45801;51.810;19.444;2022-09-17T09:58:39;97916.10;;;13.18;73.63
59939;BME280;45801;51.810;19.444;2022-09-17T10:01:17;97923.33;;;13.19;73.81
59939;BME280;45801;51.810;19.444;2022-09-17T10:03:49;97925.27;;;13.20;73.40
59939;BME280;45801;51.810;19.444;2022-09-17T10:06:18;97927.76;;;13.21;73.21
59939;BME280;45801;51.810;19.444;2022-09-17T10:11:22;97930.82;;;13.29;73.22
59939;BME280;45801;51.810;19.444;2022-09-17T10:13:49;97933.91;;;13.35;73.22
59939;BME280;45801;51.810;19.444;2022-09-17T10:16:22;97940.86;;;13.43;73.31
59939;BME280;45801;51.810;19.444;2022-09-17T10:21:36;97949.90;;;13.49;72.35
59939;BME280;45801;51.810;19.444;2022-09-17T10:24:21;97953.91;;;13.47;71.79
59939;BME280;45801;51.810;19.444;2022-09-17T10:26:49;97949.30;;;13.42;71.80
59939;BME280;45801;51.810;19.444;2022-09-17T10:29:18;97948.43;;;13.43;71.62
59939;BME280;45801;51.810;19.444;2022-09-17T10:31:50;97947.90;;;13.44;71.61
59939;BME280;45801;51.810;19.444;2022-09-17T10:34:25;97952.16;;;13.46;71.48
59939;BME280;45801;51.810;19.444;2022-09-17T10:36:53;97950.48;;;13.53;72.01
59939;BME280;45801;51.810;19.444;2022-09-17T10:41:57;97962.05;;;13.66;71.29
59939;BME280;45801;51.810;19.444;2022-09-17T10:44:32;97956.52;;;13.75;71.47
59939;BME280;45801;51.810;19.444;2022-09-17T10:47:05;97955.59;;;13.89;71.15
59939;BME280;45801;51.810;19.444;2022-09-17T10:49:40;97956.22;;;13.99;71.40
59939;BME280;45801;51.810;19.444;2022-09-17T10:52:11;97956.65;;;14.08;70.11
59939;BME280;45801;51.810;19.444;2022-09-17T11:00:21;97955.37;;;14.45;69.35
59939;BME280;45801;51.810;19.444;2022-09-17T11:03:01;97955.35;;;14.46;68.91
59939;BME280;45801;51.810;19.444;2022-09-17T11:08:11;97951.60;;;14.37;67.98
59939;BME280;45801;51.810;19.444;2022-09-17T11:13:36;97943.19;;;14.45;69.37
59939;BME280;45801;51.810;19.444;2022-09-17T11:16:09;97953.27;;;14.51;69.57
59939;BME280;45801;51.810;19.444;2022-09-17T11:18:42;97958.75;;;14.53;69.41
59939;BME280;45801;51.810;19.444;2022-09-17T11:21:42;97964.42;;;14.56;68.60
59939;BME280;45801;51.810;19.444;2022-09-17T11:24:35;97959.09;;;14.50;68.19
59939;BME280;45801;51.810;19.444;2022-09-17T11:27:24;97955.73;;;14.45;67.36
59939;BME280;45801;51.810;19.444;2022-09-17T11:30:07;97955.68;;;14.41;67.88
59939;BME280;45801;51.810;19.444;2022-09-17T11:35:34;97953.64;;;14.28;67.16
59939;BME280;45801;51.810;19.444;2022-09-17T11:38:26;97954.48;;;14.24;67.90
59939;BME280;45801;51.810;19.444;2022-09-17T11:41:05;97959.67;;;14.13;67.75
59939;BME280;45801;51.810;19.444;2022-09-17T11:43:43;97970.33;;;14.02;68.10
59939;BME280;45801;51.810;19.444;2022-09-17T11:46:20;97972.23;;;13.98;68.71
59939;BME280;45801;51.810;19.444;2022-09-17T11:49:04;97975.00;;;13.94;68.57
59939;BME280;45801;51.810;19.444;2022-09-17T11:51:42;97973.56;;;13.91;69.12
59939;BME280;45801;51.810;19.444;2022-09-17T11:54:21;97970.19;;;13.87;69.43
59939;BME280;45801;51.810;19.444;2022-09-17T11:56:55;97970.87;;;13.86;69.70
59939;BME280;45801;51.810;19.444;2022-09-17T11:59:36;97970.16;;;13.87;69.39
59939;BME280;45801;51.810;19.444;2022-09-17T12:02:14;97971.53;;;13.82;69.19
59939;BME280;45801;51.810;19.444;2022-09-17T12:04:54;97976.09;;;13.80;69.65
59939;BME280;45801;51.810;19.444;2022-09-17T12:10:31;97962.00;;;13.79;69.94
59939;BME280;45801;51.810;19.444;2022-09-17T12:13:09;97959.02;;;13.80;70.08
59939;BME280;45801;51.810;19.444;2022-09-17T12:15:41;97956.38;;;13.80;70.09
59939;BME280;45801;51.810;19.444;2022-09-17T12:19:12;97950.21;;;13.79;69.97
59939;BME280;45801;51.810;19.444;2022-09-17T12:21:24;97953.94;;;13.82;70.29
59939;BME280;45801;51.810;19.444;2022-09-17T12:24:10;97947.63;;;13.84;70.63
59939;BME280;45801;51.810;19.444;2022-09-17T12:34:49;97936.35;;;14.03;70.21
59939;BME280;45801;51.810;19.444;2022-09-17T12:37:30;97928.11;;;14.08;70.24
59939;BME280;45801;51.810;19.444;2022-09-17T12:48:08;97915.02;;;14.23;70.04
59939;BME280;45801;51.810;19.444;2022-09-17T12:50:56;97910.69;;;14.30;70.24
59939;BME280;45801;51.810;19.444;2022-09-17T12:53:33;97909.14;;;14.36;70.93
59939;BME280;45801;51.810;19.444;2022-09-17T12:56:08;97908.64;;;14.40;70.16
59939;BME280;45801;51.810;19.444;2022-09-17T13:01:19;97911.66;;;14.45;70.18
59939;BME280;45801;51.810;19.444;2022-09-17T13:03:55;97905.02;;;14.51;70.55
59939;BME280;45801;51.810;19.444;2022-09-17T13:06:47;97904.86;;;14.55;70.64
59939;BME280;45801;51.810;19.444;2022-09-17T13:12:46;97906.09;;;14.54;69.63
59939;BME280;45801;51.810;19.444;2022-09-17T13:18:07;97905.88;;;14.50;69.66
59939;BME280;45801;51.810;19.444;2022-09-17T13:23:06;97907.99;;;14.50;69.26
59939;BME280;45801;51.810;19.444;2022-09-17T13:25:32;97905.69;;;14.47;69.57
59939;BME280;45801;51.810;19.444;2022-09-17T13:28:06;97906.41;;;14.50;69.83
59939;BME280;45801;51.810;19.444;2022-09-17T13:30:55;97900.61;;;14.54;69.99
59939;BME280;45801;51.810;19.444;2022-09-17T13:36:40;97903.02;;;14.65;69.20
59939;BME280;45801;51.810;19.444;2022-09-17T13:39:10;97895.80;;;14.67;69.26
59939;BME280;45801;51.810;19.444;2022-09-17T13:41:39;97897.76;;;14.71;69.45
59939;BME280;45801;51.810;19.444;2022-09-17T13:44:08;97902.72;;;14.75;68.79
59939;BME280;45801;51.810;19.444;2022-09-17T13:46:36;97898.85;;;14.78;68.89
59939;BME280;45801;51.810;19.444;2022-09-17T13:49:12;97902.58;;;14.81;68.30
59939;BME280;45801;51.810;19.444;2022-09-17T13:54:07;97897.64;;;14.82;68.43
59939;BME280;45801;51.810;19.444;2022-09-17T13:59:06;97900.11;;;14.83;68.61
59939;BME280;45801;51.810;19.444;2022-09-17T14:04:51;97899.77;;;14.88;68.31
59939;BME280;45801;51.810;19.444;2022-09-17T14:09:52;97887.65;;;14.93;69.16
59939;BME280;45801;51.810;19.444;2022-09-17T14:17:58;97886.60;;;14.97;68.04
59939;BME280;45801;51.810;19.444;2022-09-17T14:20:27;97886.95;;;14.97;68.57
59939;BME280;45801;51.810;19.444;2022-09-17T14:22:55;97889.07;;;14.98;68.18
59939;BME280;45801;51.810;19.444;2022-09-17T14:25:31;97891.55;;;14.97;68.06
59939;BME280;45801;51.810;19.444;2022-09-17T14:28:02;97896.13;;;14.96;68.04
59939;BME280;45801;51.810;19.444;2022-09-17T14:30:33;97897.01;;;14.96;68.34
59939;BME280;45801;51.810;19.444;2022-09-17T14:35:37;97897.85;;;14.90;67.54
59939;BME280;45801;51.810;19.444;2022-09-17T14:41:00;97911.21;;;14.82;68.12
59939;BME280;45801;51.810;19.444;2022-09-17T14:43:46;97905.23;;;14.83;68.42
59939;BME280;45801;51.810;19.444;2022-09-17T14:48:52;97895.52;;;14.82;68.22
59939;BME280;45801;51.810;19.444;2022-09-17T14:54:05;97890.42;;;14.84;68.52
59939;BME280;45801;51.810;19.444;2022-09-17T14:56:43;97882.14;;;14.86;68.51
59939;BME280;45801;51.810;19.444;2022-09-17T15:01:48;97874.05;;;14.89;67.64
59939;BME280;45801;51.810;19.444;2022-09-17T15:06:42;97861.00;;;14.90;67.67
59939;BME280;45801;51.810;19.444;2022-09-17T15:09:18;97855.19;;;14.90;67.61
59939;BME280;45801;51.810;19.444;2022-09-17T15:11:45;97852.91;;;14.91;67.26
59939;BME280;45801;51.810;19.444;2022-09-17T15:14:21;97850.08;;;14.90;67.27
59939;BME280;45801;51.810;19.444;2022-09-17T15:16:50;97856.60;;;14.89;67.42
59939;BME280;45801;51.810;19.444;2022-09-17T15:19:41;97861.55;;;14.91;67.67
59939;BME280;45801;51.810;19.444;2022-09-17T15:22:19;97864.88;;;14.89;67.80
59939;BME280;45801;51.810;19.444;2022-09-17T15:25:03;97870.86;;;14.89;67.74